Pagrindinis puslapis
METAR-TAF:

METAR-TAF

Oro uostai :

Sebring, Florida, Jungtinės Amerikos Valstijos

platuma: 27-27-23N, ilguma: 081-20-33W, Aukštis: 19 m

Dabartinis oras

Ataskaita buvo paskelbta 19 minutes, ne 07:35 UTC
Vėjas 15 kt iš Šiaurės Vakarų su gūsio iki 19 kt
Temperatūra 15°C
Drėgmė 88%
Slėgis 1017 hPa
Matomumas: 16.1 km
Išsisklaidę debesys ne aukštis 2000 ft
Su prošvaistėmis ne aukštis 3400 ft
Apsiniaukę ne aukštis 11000 ft
lietus

METAR: KSEF 270735Z AUTO 31015G19KT 10SM -RA SCT020 BKN034 OVC110 15/13 A3004 RMK AO2 T01540129

Laikas: 02:54 (07:54 UTC)


TAF: trūkstamas

Orai ataskaitas ir orų prognozės (METAR, TAF).

turimą stotys yra geltonos ir raudonos taškus žemėlapyje.

Perkelti pele per norėdami pamatyti stoties vardą.

Tada spustelėkite, norėdami matyti oro stebėjimo ir prognozės.

Norėdami pakeisti žemėlapį: spustelėkite ant žalios mygtukų su juodo kryžiaus žemyn,; žalią mygtuką su brūkšneliu, jei norite nutolinti; arba žalių rodyklių gretimoms žemėlapius.


METAR-TAF: